createdAt,value
2018-04-25T00:02:45.384Z,99.90
2018-04-25T00:07:48.248Z,99.90
2018-04-25T00:12:51.174Z,99.90
2018-04-25T00:17:54.138Z,99.90
2018-04-25T00:22:57.039Z,99.90
2018-04-25T00:27:59.931Z,99.90
2018-04-25T00:33:02.803Z,99.90
2018-04-25T00:38:06.682Z,99.90
2018-04-25T00:43:09.611Z,99.90
2018-04-25T00:48:12.574Z,99.90
2018-04-25T00:53:15.764Z,99.90
2018-04-25T00:58:19.523Z,99.90
2018-04-25T01:03:22.793Z,99.90
2018-04-25T01:08:26.437Z,99.90
2018-04-25T01:13:29.378Z,99.90
2018-04-25T01:18:32.314Z,99.90
2018-04-25T01:23:37.122Z,99.90
2018-04-25T01:29:02.053Z,99.90
2018-04-25T01:34:15.231Z,99.90
2018-04-25T01:39:27.141Z,99.90
2018-04-25T01:44:35.676Z,99.90
2018-04-25T01:55:44.596Z,99.90
2018-04-25T02:01:05.881Z,99.90
2018-04-25T02:06:09.497Z,99.90
2018-04-25T02:11:13.637Z,99.90
2018-04-25T02:16:17.085Z,99.90
2018-04-25T02:21:19.902Z,99.90
2018-04-25T02:26:22.796Z,99.90
2018-04-25T02:31:25.723Z,99.90
2018-04-25T02:36:28.715Z,99.90
2018-04-25T02:41:32.444Z,99.90
2018-04-25T02:46:36.488Z,99.90
2018-04-25T02:51:40.703Z,99.90
2018-04-25T02:56:43.625Z,99.90
2018-04-25T03:01:48.165Z,99.90
2018-04-25T03:06:51.349Z,99.90
2018-04-25T03:11:55.244Z,99.90
2018-04-25T03:16:58.129Z,99.90
2018-04-25T03:22:00.998Z,99.90
2018-04-25T03:27:04.455Z,99.90
2018-04-25T03:32:07.293Z,99.90
2018-04-25T03:37:10.904Z,99.90
2018-04-25T03:42:14.537Z,99.90
2018-04-25T03:47:18.181Z,99.90
2018-04-25T03:52:21.057Z,99.90
2018-04-25T03:57:24.094Z,99.90
2018-04-25T04:02:27.240Z,99.90
2018-04-25T04:07:30.380Z,99.90
2018-04-25T04:12:33.266Z,99.90
2018-04-25T04:17:37.056Z,99.90
2018-04-25T04:22:39.914Z,99.90
2018-04-25T04:27:42.927Z,99.90
2018-04-25T04:32:45.732Z,99.90
2018-04-25T04:37:48.606Z,99.90
2018-04-25T04:42:51.453Z,99.90
2018-04-25T04:47:54.824Z,99.90
2018-04-25T04:52:57.691Z,99.90
2018-04-25T04:58:01.533Z,99.90
2018-04-25T05:03:05.233Z,99.90
2018-04-25T05:08:08.374Z,99.90
2018-04-25T05:13:11.299Z,99.90
2018-04-25T05:18:15.269Z,99.90
2018-04-25T05:23:18.101Z,99.90
2018-04-25T05:28:21.005Z,99.90
2018-04-25T05:33:23.900Z,99.90
2018-04-25T05:38:27.524Z,99.90
2018-04-25T05:43:33.488Z,99.90
2018-04-25T05:48:38.070Z,99.90
2018-04-25T05:53:40.926Z,99.90
2018-04-25T05:58:45.209Z,99.90
2018-04-25T06:03:48.087Z,99.90
2018-04-25T06:09:03.598Z,99.90
2018-04-25T06:14:06.707Z,99.90
2018-04-25T06:19:11.674Z,99.90
2018-04-25T06:24:14.885Z,99.90
2018-04-25T06:29:18.631Z,99.90
2018-04-25T06:34:21.720Z,99.90
2018-04-25T06:39:24.732Z,99.90
2018-04-25T06:44:27.546Z,99.90
2018-04-25T06:49:30.642Z,99.90
2018-04-25T06:54:33.536Z,99.90
2018-04-25T06:59:36.581Z,99.90
2018-04-25T07:04:39.703Z,99.90
2018-04-25T07:09:44.707Z,99.90
2018-04-25T07:14:48.283Z,99.90
2018-04-25T07:19:51.193Z,99.90
2018-04-25T07:25:09.771Z,99.90
2018-04-25T07:30:13.824Z,99.90
2018-04-25T07:35:33.201Z,99.90
2018-04-25T07:40:38.311Z,99.90
2018-04-25T07:45:41.264Z,99.90
2018-04-25T07:50:44.150Z,99.90
2018-04-25T07:55:46.983Z,99.90
2018-04-25T08:00:49.848Z,99.90
2018-04-25T08:05:53.106Z,99.90
2018-04-25T08:10:57.190Z,99.90
2018-04-25T08:16:12.499Z,99.90
2018-04-25T08:21:28.380Z,99.90
2018-04-25T08:26:31.220Z,99.90
2018-04-25T08:31:34.033Z,99.90
2018-04-25T08:36:37.869Z,99.90
2018-04-25T08:41:40.732Z,99.90
2018-04-25T08:46:43.531Z,99.90
2018-04-25T08:51:46.352Z,99.90
2018-04-25T08:56:49.131Z,99.90
2018-04-25T09:01:52.059Z,99.90
2018-04-25T09:06:55.644Z,99.90
2018-04-25T09:11:58.503Z,99.90
2018-04-25T09:17:01.364Z,99.90
2018-04-25T09:22:04.262Z,99.90
2018-04-25T09:27:07.178Z,99.90
2018-04-25T09:32:11.151Z,99.90
2018-04-25T09:37:13.967Z,99.90
2018-04-25T09:42:16.759Z,99.90
2018-04-25T09:47:19.561Z,99.90
2018-04-25T09:52:23.445Z,99.90
2018-04-25T09:57:28.746Z,99.90
2018-04-25T10:02:33.876Z,99.90
2018-04-25T10:07:39.713Z,99.90
2018-04-25T10:12:42.536Z,99.90
2018-04-25T10:17:46.664Z,99.90
2018-04-25T10:22:49.492Z,99.90
2018-04-25T10:27:53.327Z,99.90
2018-04-25T10:32:56.165Z,99.90
2018-04-25T10:37:59.008Z,99.90
2018-04-25T10:43:03.572Z,99.90
2018-04-25T10:48:06.632Z,99.90
2018-04-25T10:53:10.424Z,99.90
2018-04-25T10:58:13.222Z,99.90
2018-04-25T11:03:18.176Z,99.90
2018-04-25T11:08:21.415Z,99.90
2018-04-25T11:13:24.189Z,99.90
2018-04-25T11:18:27.034Z,99.90
2018-04-25T11:23:29.868Z,99.90
2018-04-25T11:28:32.735Z,99.90
2018-04-25T11:33:35.535Z,99.90
2018-04-25T11:38:39.448Z,99.90
2018-04-25T11:43:42.401Z,99.90
2018-04-25T11:48:45.559Z,99.90
2018-04-25T11:53:48.671Z,99.90
2018-04-25T11:58:51.995Z,99.90
2018-04-25T12:03:55.569Z,99.90
2018-04-25T12:08:59.145Z,99.90
2018-04-25T12:14:02.795Z,99.90
2018-04-25T12:19:08.943Z,99.90
2018-04-25T12:24:14.403Z,99.90
2018-04-25T12:29:18.217Z,99.90
2018-04-25T12:34:22.091Z,99.90
2018-04-25T12:39:25.105Z,99.90
2018-04-25T12:44:28.460Z,99.90
2018-04-25T12:49:31.301Z,99.90
2018-04-25T12:54:34.302Z,99.90
2018-04-25T13:04:52.800Z,99.90
2018-04-25T13:09:57.140Z,99.90
2018-04-25T13:15:00.014Z,99.90
2018-04-25T13:20:02.825Z,99.90
2018-04-25T13:25:05.616Z,99.90
2018-04-25T13:30:08.409Z,99.90
2018-04-25T13:35:11.243Z,99.90
2018-04-25T13:40:14.086Z,99.90
2018-04-25T13:45:16.907Z,99.90
2018-04-25T13:50:20.801Z,99.90
2018-04-25T13:55:23.735Z,99.90
2018-04-25T14:00:27.272Z,99.90
2018-04-25T14:05:31.019Z,99.90
2018-04-25T14:10:34.559Z,99.90
2018-04-25T14:15:37.453Z,99.90
2018-04-25T14:20:41.316Z,99.30
2018-04-25T14:25:46.245Z,98.70
2018-04-25T14:30:52.400Z,98.90
2018-04-25T14:35:55.875Z,97.10
2018-04-25T14:40:59.884Z,97.80
2018-04-25T14:46:04.089Z,98.40
2018-04-25T14:51:08.351Z,98.30
2018-04-25T14:56:11.794Z,96.50
2018-04-25T15:01:16.721Z,97.50
2018-04-25T15:06:19.815Z,95.80
2018-04-25T15:11:23.149Z,95.00
2018-04-25T15:16:26.688Z,96.20
2018-04-25T15:21:31.513Z,96.70
2018-04-25T15:26:35.122Z,97.10
2018-04-25T15:31:38.088Z,97.10
2018-04-25T15:36:40.903Z,99.10
2018-04-25T15:41:43.679Z,99.90
2018-04-25T15:46:47.535Z,99.90
2018-04-25T15:51:50.421Z,99.90
2018-04-25T15:56:53.285Z,99.90
2018-04-25T16:01:56.112Z,99.90
2018-04-25T16:06:58.924Z,99.90
2018-04-25T16:12:02.749Z,99.90
2018-04-25T16:17:05.537Z,99.90
2018-04-25T16:22:08.387Z,99.90
2018-04-25T16:27:11.963Z,99.90
2018-04-25T16:32:14.768Z,99.90
2018-04-25T16:37:17.655Z,99.90
2018-04-25T16:42:20.427Z,99.90
2018-04-25T16:47:23.231Z,99.90
2018-04-25T16:52:26.067Z,99.90
2018-04-25T16:57:29.105Z,99.90
2018-04-25T17:02:33.238Z,99.90
2018-04-25T17:07:36.474Z,99.90
2018-04-25T17:12:39.792Z,99.90
2018-04-25T17:17:43.281Z,99.90
2018-04-25T17:22:46.139Z,99.90
2018-04-25T17:27:49.002Z,99.90
2018-04-25T17:32:51.829Z,99.90
2018-04-25T17:37:55.477Z,99.90
2018-04-25T17:42:58.416Z,99.90
2018-04-25T17:48:01.263Z,99.90
2018-04-25T17:53:04.837Z,99.90
2018-04-25T17:58:07.793Z,99.90
2018-04-25T18:03:10.691Z,99.90
2018-04-25T18:08:14.898Z,99.90
2018-04-25T18:13:17.809Z,99.90
2018-04-25T18:18:20.691Z,99.90
2018-04-25T18:23:23.622Z,99.90
2018-04-25T18:44:39.911Z,99.90
2018-04-25T18:49:58.519Z,99.90
2018-04-25T18:55:14.223Z,99.90
2018-04-25T19:00:17.237Z,99.90
2018-04-25T19:05:57.386Z,99.90
2018-04-25T19:11:01.188Z,99.90
2018-04-25T19:16:04.822Z,99.90
2018-04-25T19:21:08.463Z,99.90
2018-04-25T19:26:11.707Z,99.90
2018-04-25T19:31:17.505Z,99.90
2018-04-25T19:36:20.318Z,99.90
2018-04-25T19:41:29.110Z,99.90
2018-04-25T19:46:43.301Z,99.90
2018-04-25T19:51:46.604Z,99.90
2018-04-25T19:56:49.721Z,99.90
2018-04-25T20:01:53.041Z,99.90
2018-04-25T20:06:56.749Z,99.90
2018-04-25T20:12:00.790Z,99.90
2018-04-25T20:22:42.900Z,99.90
2018-04-25T20:27:45.989Z,99.90
2018-04-25T20:32:50.680Z,99.90
2018-04-25T20:37:54.024Z,99.90
2018-04-25T20:42:58.013Z,99.90
2018-04-25T20:48:00.847Z,99.90
2018-04-25T20:53:05.029Z,99.90
2018-04-25T20:58:13.254Z,99.90
2018-04-25T21:03:19.745Z,99.90
2018-04-25T21:08:26.220Z,99.90
2018-04-25T21:13:32.281Z,99.90
2018-04-25T21:18:37.598Z,99.90
2018-04-25T21:23:42.725Z,99.90
2018-04-25T21:28:46.445Z,99.90
2018-04-25T21:33:59.637Z,99.90
2018-04-25T21:39:03.219Z,99.90
2018-04-25T21:44:15.347Z,99.90
2018-04-25T21:49:18.610Z,99.90
2018-04-25T21:54:26.734Z,99.90
2018-04-25T21:59:33.432Z,99.90
2018-04-25T22:04:37.088Z,99.90
2018-04-25T22:09:40.883Z,99.90
2018-04-25T22:14:44.006Z,99.90
2018-04-25T22:19:49.675Z,99.90
2018-04-25T22:24:52.481Z,99.90
2018-04-25T22:29:56.219Z,99.90
2018-04-25T22:35:00.303Z,99.90
2018-04-25T22:40:04.883Z,99.90
2018-04-25T22:45:10.091Z,99.90
2018-04-25T22:50:13.732Z,99.90
2018-04-25T23:00:31.028Z,99.90
2018-04-25T23:05:36.789Z,99.90
2018-04-25T23:10:46.144Z,99.90
2018-04-25T23:15:49.857Z,99.90
2018-04-25T23:20:58.047Z,99.90
2018-04-25T23:26:00.886Z,99.90
2018-04-25T23:31:03.668Z,99.90
2018-04-25T23:36:07.295Z,99.90
2018-04-25T23:41:11.161Z,99.90
2018-04-25T23:46:15.680Z,99.90
2018-04-25T23:51:18.520Z,99.90
